Terminal Aerodrome Forecast
Issued by NWS

Home | Current Version | Previous Version | Graphics & Text | Print | Product List | Glossary On
Versions: 1 2 3 4 5 6 7 8 9 10 11 12 13 14 15 16 17 18 19 20 21 22 23 24 25
009
FTUS43 KLOT 042109 AAB
TAFORD
TAF AMD
KORD 042109Z 0421/0524 28010KT P6SM FEW030
     FM050000 25008KT P6SM BKN090
     FM050200 22008KT P6SM BKN050
     FM050700 26007KT P6SM BKN050
     FM051100 31007KT P6SM BKN015
     FM052100 28005KT P6SM SCT015=

USA.gov is the U.S. government's official web portal to all federal, state and local government web resources and services.